Latest Coastal Weather Observations for Broome Port

IDW60701

Issued at 10:05 am WST Monday 15 September 2014 (issued every 10 minutes, with the page automatically refreshed every 10 minutes)

About coastal observations | Map of coastal stations | Coastal observations for WA | Marine services | Other Formats
Station Details ID: 003102 Name: BROOME NTC AWS Lat: -18.00 Lon: 122.22 Height: 0.0 m
Data from the previous 72 hours. | See also: Recent months for locations in Western Australia
Date/Time
WST
Temp

°C
Wind Pressure Rain
since 9am
mm
Weather Cloud Vis
km
Sea
Height
m
Swell
Dir
 
Speed
knots
Gust
knots
hPa Trend Height
m
Period
s
Dir
15/10:00am 28.4 SE 3 5 1012.8 - - - - - - - - -
15/09:30am 27.4 - - - 1012.9 - - - - - - - - -
15/09:00am 26.5 ESE 6 7 1013.0 - - - - - - - - -
15/08:30am 25.6 E 3 6 1012.9 - - - - - - - - -
15/08:00am 24.6 NE 3 3 1012.8 - - - - - - - - -
15/07:30am 23.7 NE 5 6 1012.5 - - - - - - - - -
15/07:00am 22.8 ENE 5 6 1012.4 - - - - - - - - -
15/06:30am 23.5 ENE 6 7 1011.9 - - - - - - - - -
15/06:00am 21.7 NE 9 11 1011.8 - - - - - - - - -
15/05:30am 22.2 ENE 8 10 1011.5 - - - - - - - - -
15/05:00am 21.6 ENE 9 12 1011.4 - - - - - - - - -
15/04:30am 21.1 ENE 12 14 1011.4 - - - - - - - - -
15/04:00am 23.3 SSE 7 8 1010.6 - - - - - - - - -
15/03:30am 23.3 SE 6 7 1010.4 - - - - - - - - -
15/03:00am 23.2 SE 6 8 1010.3 - - - - - - - - -
15/02:30am 23.4 SE 7 9 1010.4 - - - - - - - - -
15/02:00am 23.4 SE 7 10 1010.3 - - - - - - - - -
15/01:30am 23.6 SE 10 11 1010.3 - - - - - - - - -
15/01:00am 24.0 WSW 3 3 1010.0 - - - - - - - - -
15/12:30am 24.1 N 3 4 1010.3 - - - - - - - - -
15/12:00am 24.2 NNE 3 6 1010.7 - - - - - - - - -
 
Date/Time
WST
Temp

°C
Wind Pressure Rain
since 9am
mm
Weather Cloud Vis
km
Sea
Height
m
Swell
Dir
 
Speed
knots
Gust
knots
hPa Trend Height
m
Period
s
Dir
14/11:30pm 24.6 N 2 3 1010.9 - - - - - - - - -
14/11:00pm 24.6 N 4 8 1011.0 - - - - - - - - -
14/10:30pm 25.0 NNW 9 11 1010.8 - - - - - - - - -
14/10:00pm 25.3 NNW 11 14 1010.8 - - - - - - - - -
14/09:30pm 25.6 NNW 12 15 1011.0 - - - - - - - - -
14/09:00pm 25.8 N 14 16 1011.1 - - - - - - - - -
14/08:30pm 25.0 N 14 17 1011.3 - - - - - - - - -
14/08:00pm 24.9 N 16 18 1011.2 - - - - - - - - -
14/07:30pm 25.1 N 16 19 1010.9 - - - - - - - - -
14/07:00pm 25.0 N 16 19 1010.7 - - - - - - - - -
14/06:30pm 25.2 N 17 21 1010.3 - - - - - - - - -
14/06:00pm 25.3 NNW 18 22 1009.9 - - - - - - - - -
14/05:30pm 25.5 NNW 16 21 1009.8 - - - - - - - - -
14/05:00pm 25.7 NNW 16 21 1009.5 - - - - - - - - -
14/04:30pm 26.4 NNW 15 19 1009.3 - - - - - - - - -
14/04:00pm 26.5 NNW 14 19 1009.0 - - - - - - - - -
14/03:30pm 26.5 NW 15 20 1008.8 - - - - - - - - -
14/03:00pm 26.7 NW 18 21 1008.7 - - - - - - - - -
14/02:30pm 26.6 NW 17 22 1008.8 - - - - - - - - -
14/02:00pm 26.3 NW 15 18 1009.1 - - - - - - - - -
14/01:30pm 26.2 NW 15 18 1009.3 - - - - - - - - -
14/01:00pm 26.1 NW 14 17 1009.5 - - - - - - - - -
14/12:30pm 26.4 NW 13 17 1009.9 - - - - - - - - -
14/12:00pm 26.9 NW 12 14 1010.3 - - - - - - - - -
14/11:30am 28.0 NW 10 12 1010.6 - - - - - - - - -
14/11:00am 30.0 ENE 4 6 1010.9 - - - - - - - - -
14/10:30am 27.6 SSE 4 8 1011.2 - - - - - - - - -
14/10:00am 26.6 SSE 5 6 1011.8 - - - - - - - - -
14/09:30am 25.2 ESE 8 11 1011.7 - - - - - - - - -
14/09:00am 25.1 ESE 12 14 1011.5 - - - - - - - - -
14/08:30am 23.9 ESE 12 14 1011.4 - - - - - - - - -
14/08:00am 23.5 ESE 14 17 1011.1 - - - - - - - - -
14/07:30am 23.5 ESE 10 12 1011.0 - - - - - - - - -
14/07:00am 24.2 ESE 12 14 1010.7 - - - - - - - - -
14/06:30am 24.7 ESE 11 13 1010.5 - - - - - - - - -
14/06:00am 25.5 ESE 10 12 1010.1 - - - - - - - - -
14/05:30am 25.6 ESE 9 11 1009.9 - - - - - - - - -
14/05:00am 25.2 E 5 8 1009.5 - - - - - - - - -
14/04:30am 26.2 SSE 4 6 1009.2 - - - - - - - - -
14/04:00am 25.9 S 2 5 1009.1 - - - - - - - - -
14/03:30am 25.5 S 2 4 1009.1 - - - - - - - - -
14/03:00am 25.9 SW 6 9 1009.0 - - - - - - - - -
14/02:30am 25.4 SSW 4 7 1009.2 - - - - - - - - -
14/02:00am 25.3 SW 8 11 1009.5 - - - - - - - - -
14/01:30am 26.0 SW 9 12 1009.8 - - - - - - - - -
14/01:00am 26.2 SW 8 11 1010.0 - - - - - - - - -
14/12:30am 26.1 SW 8 10 1010.2 - - - - - - - - -
14/12:00am 26.3 SW 5 7 1010.6 - - - - - - - - -
 
Date/Time
WST
Temp

°C
Wind Pressure Rain
since 9am
mm
Weather Cloud Vis
km
Sea
Height
m
Swell
Dir
 
Speed
knots
Gust
knots
hPa Trend Height
m
Period
s
Dir
13/11:30pm 26.8 SSW 5 10 1010.9 - - - - - - - - -
13/11:00pm 25.9 E 5 7 1011.3 - - - - - - - - -
13/10:30pm 26.8 SW 9 13 1011.1 - - - - - - - - -
13/10:00pm 27.0 S 4 10 1011.1 - - - - - - - - -
13/09:30pm 25.9 SSW 9 13 1011.2 - - - - - - - - -
13/09:00pm 26.6 SW 15 18 1010.7 - - - - - - - - -
13/08:30pm 26.1 WSW 15 20 1010.6 - - - - - - - - -
13/08:00pm 26.3 SW 19 22 1010.1 - - - - - - - - -
13/07:30pm 26.9 WSW 18 20 1009.8 - - - - - - - - -
13/07:00pm 27.1 WSW 18 21 1009.7 - - - - - - - - -
13/06:30pm 27.5 WSW 19 22 1009.5 - - - - - - - - -
13/06:00pm 27.5 WSW 18 21 1009.2 - - - - - - - - -
13/05:30pm 28.0 WSW 18 21 1009.0 - - - - - - - - -
13/05:00pm 28.1 WSW 18 21 1008.9 - - - - - - - - -
13/04:30pm 28.5 WSW 18 22 1008.9 - - - - - - - - -
13/04:00pm 29.2 W 17 21 1008.9 - - - - - - - - -
13/03:30pm 30.2 W 18 23 1008.9 - - - - - - - - -
13/03:00pm 31.7 W 17 22 1009.2 - - - - - - - - -
13/02:30pm 31.2 W 17 22 1009.5 - - - - - - - - -
13/02:00pm 30.4 W 15 17 1009.9 - - - - - - - - -
13/01:30pm 30.1 W 13 16 1010.4 - - - - - - - - -
13/01:00pm 29.0 W 11 13 1010.7 - - - - - - - - -
13/12:30pm 28.9 W 10 14 1011.2 - - - - - - - - -
13/12:00pm 30.1 W 7 9 1011.8 - - - - - - - - -
13/11:30am 29.8 W 5 7 1012.3 - - - - - - - - -
13/11:00am 31.1 SW 3 5 1012.7 - - - - - - - - -
13/10:30am 28.8 WSW 4 6 1013.4 - - - - - - - - -
13/10:00am 27.8 CALM 0 1 1013.9 - - - - - - - - -
13/09:30am 26.2 SE 2 3 1014.4 - - - - - - - - -
13/09:00am 25.0 SSE 4 5 1014.5 - - - - - - - - -
13/08:30am 24.4 SE 5 6 1014.5 - - - - - - - - -
13/08:00am 24.6 SE 6 7 1014.4 - - - - - - - - -
13/07:30am 24.6 SSE 7 8 1014.3 - - - - - - - - -
13/07:00am 24.3 ESE 7 9 1014.1 - - - - - - - - -
13/06:30am 24.5 E 9 11 1013.8 - - - - - - - - -
13/06:00am 24.8 E 11 14 1013.3 - - - - - - - - -
13/05:30am 24.3 E 8 10 1013.0 - - - - - - - - -
13/05:00am 25.7 E 13 16 1012.4 - - - - - - - - -
13/04:30am 26.8 SSW 8 14 1011.7 - - - - - - - - -
13/04:00am 26.9 SW 9 12 1011.6 - - - - - - - - -
13/03:30am 26.5 SE 5 9 1012.1 - - - - - - - - -
13/03:00am 26.8 SE 5 9 1012.2 - - - - - - - - -
13/02:30am 26.4 S 1 2 1012.3 - - - - - - - - -
13/02:00am 26.3 W 1 3 1012.5 - - - - - - - - -
13/01:30am 25.3 NNE 1 5 1012.6 - - - - - - - - -
13/01:00am 27.0 SSW 2 3 1012.6 - - - - - - - - -
13/12:30am 27.2 S 1 6 1012.7 - - - - - - - - -
13/12:00am 26.8 SSE 2 5 1013.0 - - - - - - - - -
 
Date/Time
WST
Temp

°C
Wind Pressure Rain
since 9am
mm
Weather Cloud Vis
km
Sea
Height
m
Swell
Dir
 
Speed
knots
Gust
knots
hPa Trend Height
m
Period
s
Dir
12/11:30pm 26.9 SSE 1 4 1013.1 - - - - - - - - -
12/11:00pm 28.2 SSW 3 7 1013.1 - - - - - - - - -
12/10:30pm 28.8 N 2 4 1013.1 - - - - - - - - -
12/10:00pm 27.7 NNW 1 3 1013.1 - - - - - - - - -
12/09:30pm 29.1 SW 6 10 1013.0 - - - - - - - - -
12/09:00pm 28.8 ENE 6 8 1013.1 - - - - - - - - -
12/08:30pm 29.3 SW 12 19 1012.8 - - - - - - - - -
12/08:00pm 26.0 NNW 4 7 1012.7 - - - - - - - - -
12/07:30pm 26.2 WSW 14 15 1012.1 - - - - - - - - -
12/07:00pm 27.6 SW 15 17 1011.7 - - - - - - - - -
12/06:30pm 26.8 SW 15 18 1011.5 - - - - - - - - -
12/06:00pm 26.2 SW 12 14 1011.2 - - - - - - - - -
12/05:30pm 25.8 SW 11 13 1010.9 - - - - - - - - -
12/05:00pm 26.9 WSW 12 13 1010.8 - - - - - - - - -
12/04:30pm 26.7 WSW 11 13 1010.6 - - - - - - - - -
12/04:29pm 26.9 WSW 11 13 1010.6 - - - - - - - - -
12/04:00pm 32.0 SW 9 13 1010.3 - - - - - - - - -
12/03:30pm 29.4 SSW 6 10 1010.4 - - - - - - - - -
12/03:29pm 29.6 SSW 5 10 1010.4 - - - - - - - - -
12/03:00pm 34.6 S 2 7 1010.4 - - - - - - - - -
12/02:30pm 32.9 SE 2 6 1010.6 - - - - - - - - -
12/02:00pm 33.0 SSE 2 5 1010.9 - - - - - - - - -
12/01:30pm 33.0 SSE 6 11 1011.4 - - - - - - - - -
12/01:00pm 33.0 SE 9 13 1011.8 - - - - - - - - -
12/12:30pm 33.0 SE 11 13 1012.2 - - - - - - - - -
12/12:00pm 32.3 SE 14 15 1012.7 - - - - - - - - -
12/11:30am 31.5 SE 12 16 1013.4 - - - - - - - - -
12/11:00am 30.5 SE 10 13 1014.3 - - - - - - - - -
12/10:30am 30.1 ESE 13 15 1014.8 - - - - - - - - -

Other Formats:

Comma delimited format used in spreadsheet applications
http://www.bom.gov.au/fwo/IDW60701/IDW60701.95202.axf

JavaScript Object Notation format (JSON) in row-major order
http://www.bom.gov.au/fwo/IDW60701/IDW60701.95202.json